Duncan, Iowa
Current Conditions -  °F | °C
As of 6:15 PM on Tuesday 25 Nov 2014 (Local Time) from KFXY Reporting Station
Overcast Overcast  
Wind Chill: -8°   Ceiling: 7000
Heat Index: -3°   Visibility: 10mi
Dew Point: -7°   Wind: 10mph
Humidity: 74%   Direction: 150°SSE
Pressure: 30.01"   Gusts: NA
Location:  43.1015°N, 93.7581°W
Report Text: KFXY 260015Z AUTO 15009KT 10SM OVC070 M03/M07 A3001 RMK AO2
Loading
Personal Weather Stations






























Interactive Weather Map New forecast layout! Learn more

10-Day Weather Forecast

Advertisements
Track Severe Weather on mobile